Time,TemperatureF,DewpointF,PressureIn,WindDirection,WindDirectionDegrees,WindSpeedMPH,WindSpeedGustMPH,Humidity,HourlyPrecipIn,Conditions,Clouds,dailyrainin,SolarRadiationWatts/m^2,SoftwareType,DateUTC
2013-06-12 00:01:00,69.0,64.0,29.84,WSW,253,0.0,0.0,84,0.00,,,0.00,0,WeatherCatV1.15B25,2013-06-12 04:01:00,
2013-06-12 00:06:00,68.8,63.8,29.84,WSW,253,0.0,0.0,84,0.00,,,0.00,0,WeatherCatV1.15B25,2013-06-12 04:06:00,
2013-06-12 00:11:00,68.4,63.7,29.84,WSW,253,0.0,0.0,85,0.00,,,0.00,0,WeatherCatV1.15B25,2013-06-12 04:11:00,
2013-06-12 00:16:00,68.0,63.0,29.85,WSW,253,0.0,0.0,84,0.00,,,0.00,0,WeatherCatV1.15B25,2013-06-12 04:16:00,
2013-06-12 00:21:00,67.8,63.1,29.85,WSW,253,0.0,0.0,85,0.00,,,0.00,0,WeatherCatV1.15B25,2013-06-12 04:21:00,
2013-06-12 00:26:00,67.6,63.3,29.85,WSW,253,0.0,0.0,86,0.00,,,0.00,0,WeatherCatV1.15B25,2013-06-12 04:26:00,
2013-06-12 00:31:00,67.3,63.0,29.85,WSW,253,0.0,0.0,86,0.00,,,0.00,0,WeatherCatV1.15B25,2013-06-12 04:31:00,
2013-06-12 00:36:00,67.0,62.7,29.84,WSW,253,0.0,0.0,86,0.00,,,0.00,0,WeatherCatV1.15B25,2013-06-12 04:36:00,
2013-06-12 00:41:00,66.8,62.5,29.84,WSW,253,0.0,0.0,86,0.00,,,0.00,0,WeatherCatV1.15B25,2013-06-12 04:41:00,
2013-06-12 00:46:00,66.6,62.3,29.84,SE,131,0.0,0.0,86,0.00,,,0.00,0,WeatherCatV1.15B25,2013-06-12 04:46:00,
2013-06-12 00:51:00,66.4,62.1,29.84,SE,131,0.0,0.0,86,0.00,,,0.00,0,WeatherCatV1.15B25,2013-06-12 04:51:00,
2013-06-12 00:56:00,66.2,61.9,29.84,SE,131,0.0,0.0,86,0.00,,,0.00,0,WeatherCatV1.15B25,2013-06-12 04:56:00,
2013-06-12 01:01:00,66.2,61.9,29.83,SE,131,0.0,0.0,86,0.00,,,0.00,0,WeatherCatV1.15B25,2013-06-12 05:01:00,
2013-06-12 01:06:00,66.0,61.7,29.84,SE,131,0.0,0.0,86,0.00,,,0.00,0,WeatherCatV1.15B25,2013-06-12 05:06:00,
2013-06-12 01:11:00,65.8,61.5,29.84,SE,131,0.0,0.0,86,0.00,,,0.00,0,WeatherCatV1.15B25,2013-06-12 05:11:00,
2013-06-12 01:16:00,65.6,61.3,29.84,SE,131,0.0,0.0,86,0.00,,,0.00,0,WeatherCatV1.15B25,2013-06-12 05:16:00,
2013-06-12 01:21:00,65.5,61.2,29.84,SE,131,0.0,0.0,86,0.00,,,0.00,0,WeatherCatV1.15B25,2013-06-12 05:21:00,
2013-06-12 01:27:00,65.4,61.1,29.84,SE,131,0.0,0.0,86,0.00,,,0.00,0,WeatherCatV1.15B25,2013-06-12 05:27:00,
2013-06-12 01:32:00,65.2,60.9,29.84,SE,131,0.0,0.0,86,0.00,,,0.00,0,WeatherCatV1.15B25,2013-06-12 05:32:00,
2013-06-12 01:37:00,65.1,60.8,29.84,SE,131,0.0,0.0,86,0.00,,,0.00,0,WeatherCatV1.15B25,2013-06-12 05:37:00,
2013-06-12 01:42:00,65.0,60.7,29.84,SE,131,0.0,0.0,86,0.00,,,0.00,0,WeatherCatV1.15B25,2013-06-12 05:42:00,
2013-06-12 01:47:00,65.0,60.7,29.84,SE,131,0.0,0.0,86,0.00,,,0.00,0,WeatherCatV1.15B25,2013-06-12 05:47:00,
2013-06-12 01:52:00,64.9,60.6,29.85,SE,131,0.0,0.0,86,0.00,,,0.00,0,WeatherCatV1.15B25,2013-06-12 05:52:00,
2013-06-12 01:57:00,64.8,60.5,29.84,SE,131,0.0,0.0,86,0.00,,,0.00,0,WeatherCatV1.15B25,2013-06-12 05:57:00,
2013-06-12 02:02:00,64.7,60.4,29.84,SE,131,0.0,0.0,86,0.00,,,0.00,0,WeatherCatV1.15B25,2013-06-12 06:02:00,
2013-06-12 02:07:00,64.7,60.4,29.84,SSE,152,0.0,0.0,86,0.00,,,0.00,0,WeatherCatV1.15B25,2013-06-12 06:07:00,
2013-06-12 02:12:00,64.7,60.4,29.84,SSE,152,0.0,0.0,86,0.00,,,0.00,0,WeatherCatV1.15B25,2013-06-12 06:12:00,
2013-06-12 02:16:00,64.6,60.3,29.84,SSE,152,0.0,0.0,86,0.00,,,0.00,0,WeatherCatV1.15B25,2013-06-12 06:16:00,
2013-06-12 02:21:00,64.5,60.2,29.84,SSE,152,0.0,0.0,86,0.00,,,0.00,0,WeatherCatV1.15B25,2013-06-12 06:21:00,
2013-06-12 02:26:00,64.3,60.0,29.85,SSE,152,0.0,1.0,86,0.00,,,0.00,0,WeatherCatV1.15B25,2013-06-12 06:26:00,
2013-06-12 02:31:00,64.1,59.8,29.85,WNW,299,0.0,0.0,86,0.00,,,0.00,0,WeatherCatV1.15B25,2013-06-12 06:31:00,
2013-06-12 02:36:00,64.1,59.8,29.85,WNW,299,0.0,0.0,86,0.00,,,0.00,0,WeatherCatV1.15B25,2013-06-12 06:36:00,
2013-06-12 02:41:00,64.1,59.8,29.85,WNW,299,0.0,0.0,86,0.00,,,0.00,0,WeatherCatV1.15B25,2013-06-12 06:41:00,
2013-06-12 02:46:00,64.1,59.8,29.85,WNW,299,0.0,1.0,86,0.00,,,0.00,0,WeatherCatV1.15B25,2013-06-12 06:46:00,
2013-06-12 02:51:00,64.0,59.7,29.85,WNW,299,0.0,0.0,86,0.00,,,0.00,0,WeatherCatV1.15B25,2013-06-12 06:51:00,
2013-06-12 02:56:00,63.9,59.6,29.85,WNW,299,0.0,0.0,86,0.00,,,0.00,0,WeatherCatV1.15B25,2013-06-12 06:56:00,
2013-06-12 03:01:00,63.9,59.6,29.85,WNW,299,0.0,0.0,86,0.00,,,0.00,0,WeatherCatV1.15B25,2013-06-12 07:01:00,
2013-06-12 03:08:00,64.1,59.5,29.85,WNW,299,0.0,0.0,85,0.00,,,0.00,0,WeatherCatV1.15B25,2013-06-12 07:08:00,
2013-06-12 03:11:00,63.9,59.6,29.85,WNW,299,0.0,0.0,86,0.00,,,0.00,0,WeatherCatV1.15B25,2013-06-12 07:11:00,
2013-06-12 03:16:00,63.8,59.2,29.85,WNW,299,0.0,0.0,85,0.00,,,0.00,0,WeatherCatV1.15B25,2013-06-12 07:16:00,
2013-06-12 03:21:00,63.8,59.2,29.85,WNW,299,0.0,0.0,85,0.00,,,0.00,0,WeatherCatV1.15B25,2013-06-12 07:21:00,
2013-06-12 03:26:00,63.8,59.2,29.84,WNW,299,0.0,0.0,85,0.00,,,0.00,0,WeatherCatV1.15B25,2013-06-12 07:26:00,
2013-06-12 03:31:00,63.8,59.2,29.84,WNW,299,0.0,0.0,85,0.00,,,0.00,0,WeatherCatV1.15B25,2013-06-12 07:31:00,
2013-06-12 03:36:00,64.0,59.4,29.84,WNW,299,0.0,0.0,85,0.00,,,0.00,0,WeatherCatV1.15B25,2013-06-12 07:36:00,
2013-06-12 03:41:00,64.0,59.4,29.84,WNW,299,0.0,0.0,85,0.00,,,0.00,0,WeatherCatV1.15B25,2013-06-12 07:41:00,
2013-06-12 03:46:00,64.1,59.5,29.84,WNW,299,0.0,0.0,85,0.00,,,0.00,0,WeatherCatV1.15B25,2013-06-12 07:46:00,
2013-06-12 03:51:00,64.1,59.5,29.85,WNW,299,0.0,0.0,85,0.00,,,0.00,0,WeatherCatV1.15B25,2013-06-12 07:51:00,
2013-06-12 03:56:00,64.1,59.5,29.85,WNW,298,0.0,2.0,85,0.00,,,0.00,0,WeatherCatV1.15B25,2013-06-12 07:56:00,
2013-06-12 04:01:00,64.3,59.4,29.85,West,274,1.0,3.0,84,0.00,,,0.00,0,WeatherCatV1.15B25,2013-06-12 08:01:00,
2013-06-12 04:06:00,64.7,59.7,29.85,West,274,0.0,1.0,84,0.00,,,0.01,0,WeatherCatV1.15B25,2013-06-12 08:06:00,
2013-06-12 04:11:00,65.0,60.0,29.85,SW,229,0.0,0.0,84,0.00,,,0.01,0,WeatherCatV1.15B25,2013-06-12 08:11:00,
2013-06-12 04:16:00,65.1,60.1,29.85,WSW,239,0.0,1.0,84,0.00,,,0.01,0,WeatherCatV1.15B25,2013-06-12 08:16:00,
2013-06-12 04:21:00,65.4,60.4,29.84,WSW,239,0.0,0.0,84,0.00,,,0.01,0,WeatherCatV1.15B25,2013-06-12 08:21:00,
2013-06-12 04:26:00,65.7,60.7,29.84,WSW,239,0.0,0.0,84,0.00,,,0.01,0,WeatherCatV1.15B25,2013-06-12 08:26:00,
2013-06-12 04:31:00,65.8,60.8,29.84,WSW,239,0.0,0.0,84,0.00,,,0.01,0,WeatherCatV1.15B25,2013-06-12 08:31:00,
2013-06-12 04:36:00,65.8,60.8,29.84,WSW,239,0.0,0.0,84,0.00,,,0.01,0,WeatherCatV1.15B25,2013-06-12 08:36:00,
2013-06-12 04:41:00,65.6,60.6,29.83,WSW,239,0.0,1.0,84,0.00,,,0.01,0,WeatherCatV1.15B25,2013-06-12 08:41:00,
2013-06-12 04:46:00,65.5,60.9,29.84,WSW,239,0.0,0.0,85,0.00,,,0.01,0,WeatherCatV1.15B25,2013-06-12 08:46:00,
2013-06-12 04:52:00,65.4,60.8,29.84,WSW,239,0.0,0.0,85,0.00,,,0.01,0,WeatherCatV1.15B25,2013-06-12 08:52:00,
2013-06-12 04:57:00,65.2,60.6,29.84,WSW,239,0.0,0.0,85,0.00,,,0.01,0,WeatherCatV1.15B25,2013-06-12 08:57:00,
2013-06-12 05:02:00,65.1,60.5,29.84,WSW,239,0.0,0.0,85,0.00,,,0.01,0,WeatherCatV1.15B25,2013-06-12 09:02:00,
2013-06-12 05:07:00,65.1,60.5,29.84,WSW,239,0.0,0.0,85,0.00,,,0.01,0,WeatherCatV1.15B25,2013-06-12 09:07:00,
2013-06-12 05:12:00,65.0,60.4,29.83,WSW,239,0.0,0.0,85,0.00,,,0.01,0,WeatherCatV1.15B25,2013-06-12 09:12:00,
2013-06-12 05:17:00,64.9,60.3,29.83,WSW,239,0.0,1.0,85,0.00,,,0.01,0,WeatherCatV1.15B25,2013-06-12 09:17:00,
2013-06-12 05:22:00,64.9,59.9,29.83,WSW,239,0.0,0.0,84,0.00,,,0.01,0,WeatherCatV1.15B25,2013-06-12 09:22:00,
2013-06-12 05:27:00,65.0,60.0,29.84,WSW,239,0.0,0.0,84,0.00,,,0.01,0,WeatherCatV1.15B25,2013-06-12 09:27:00,
2013-06-12 05:32:00,65.0,60.0,29.84,WSW,239,0.0,0.0,84,0.00,,,0.01,0,WeatherCatV1.15B25,2013-06-12 09:32:00,
2013-06-12 05:37:00,65.1,60.1,29.84,WSW,239,0.0,0.0,84,0.00,,,0.01,0,WeatherCatV1.15B25,2013-06-12 09:37:00,
2013-06-12 05:42:00,65.0,60.0,29.84,NNW,345,1.0,2.0,84,0.00,,,0.01,0,WeatherCatV1.15B25,2013-06-12 09:42:00,
2013-06-12 05:47:00,65.0,60.0,29.84,NE,41,0.0,1.0,84,0.00,,,0.01,0,WeatherCatV1.15B25,2013-06-12 09:47:00,
2013-06-12 05:52:00,64.9,59.9,29.84,NE,41,0.0,0.0,84,0.00,,,0.01,5,WeatherCatV1.15B25,2013-06-12 09:52:00,
2013-06-12 05:56:00,64.9,59.9,29.84,NE,41,0.0,0.0,84,0.00,,,0.01,5,WeatherCatV1.15B25,2013-06-12 09:56:00,
2013-06-12 06:01:00,65.0,60.0,29.84,NE,41,0.0,0.0,84,0.00,,,0.01,7,WeatherCatV1.15B25,2013-06-12 10:01:00,
2013-06-12 06:06:00,65.0,60.0,29.84,East,98,0.0,1.0,84,0.00,,,0.01,11,WeatherCatV1.15B25,2013-06-12 10:06:00,
2013-06-12 06:11:00,65.0,60.0,29.84,ESE,103,0.0,0.0,84,0.00,,,0.01,12,WeatherCatV1.15B25,2013-06-12 10:11:00,
2013-06-12 06:16:00,65.0,60.0,29.84,ESE,103,0.0,1.0,84,0.00,,,0.01,16,WeatherCatV1.15B25,2013-06-12 10:16:00,
2013-06-12 06:21:00,65.1,60.1,29.84,ESE,103,0.0,1.0,84,0.00,,,0.01,18,WeatherCatV1.15B25,2013-06-12 10:21:00,
2013-06-12 06:26:00,65.2,60.2,29.84,ESE,103,0.0,0.0,84,0.00,,,0.01,23,WeatherCatV1.15B25,2013-06-12 10:26:00,
2013-06-12 06:31:00,65.2,60.2,29.84,ESE,103,0.0,0.0,84,0.00,,,0.01,28,WeatherCatV1.15B25,2013-06-12 10:31:00,
2013-06-12 06:35:00,65.2,60.2,29.84,ESE,103,0.0,0.0,84,0.00,,,0.01,30,WeatherCatV1.15B25,2013-06-12 10:35:00,
2013-06-12 06:40:00,65.3,60.7,29.85,ESE,103,0.0,1.0,85,0.00,,,0.01,33,WeatherCatV1.15B25,2013-06-12 10:40:00,
2013-06-12 06:45:00,65.4,60.8,29.85,ESE,103,0.0,0.0,85,0.00,,,0.01,30,WeatherCatV1.15B25,2013-06-12 10:45:00,
2013-06-12 06:50:00,65.6,61.0,29.85,SE,125,0.0,0.0,85,0.00,,,0.01,37,WeatherCatV1.15B25,2013-06-12 10:50:00,
2013-06-12 06:55:00,65.7,60.7,29.85,SE,125,0.0,0.0,84,0.00,,,0.01,46,WeatherCatV1.15B25,2013-06-12 10:55:00,
2013-06-12 07:00:00,65.8,60.8,29.85,SE,125,0.0,0.0,84,0.00,,,0.01,49,WeatherCatV1.15B25,2013-06-12 11:00:00,
2013-06-12 07:05:00,65.9,60.9,29.85,SE,125,0.0,0.0,84,0.00,,,0.01,54,WeatherCatV1.15B25,2013-06-12 11:05:00,
2013-06-12 07:10:00,66.1,61.5,29.85,SE,125,0.0,0.0,85,0.00,,,0.01,60,WeatherCatV1.15B25,2013-06-12 11:10:00,
2013-06-12 07:15:00,66.4,61.4,29.85,SE,125,0.0,0.0,84,0.00,,,0.01,83,WeatherCatV1.15B25,2013-06-12 11:15:00,
2013-06-12 07:20:00,66.6,61.6,29.85,SE,125,0.0,0.0,84,0.00,,,0.01,146,WeatherCatV1.15B25,2013-06-12 11:20:00,
2013-06-12 07:25:00,67.0,62.0,29.85,SE,125,0.0,0.0,84,0.00,,,0.01,160,WeatherCatV1.15B25,2013-06-12 11:25:00,
2013-06-12 07:30:00,67.5,62.5,29.85,SE,125,0.0,0.0,84,0.00,,,0.01,169,WeatherCatV1.15B25,2013-06-12 11:30:00,
2013-06-12 07:35:00,68.0,63.0,29.85,SE,125,0.0,0.0,84,0.00,,,0.01,188,WeatherCatV1.15B25,2013-06-12 11:35:00,
2013-06-12 07:38:00,68.3,63.3,29.85,SW,223,0.0,0.0,84,0.00,,,0.01,192,WeatherCatV1.15B25,2013-06-12 11:38:00,
2013-06-12 07:43:00,68.9,64.2,29.85,SSW,197,0.0,0.0,85,0.00,,,0.01,209,WeatherCatV1.15B25,2013-06-12 11:43:00,
2013-06-12 07:50:00,69.8,65.4,29.85,South,190,0.0,1.0,86,0.00,,,0.01,225,WeatherCatV1.15B25,2013-06-12 11:50:00,
2013-06-12 07:55:00,70.6,66.2,29.85,NW,316,1.0,1.0,86,0.00,,,0.01,246,WeatherCatV1.15B25,2013-06-12 11:55:00,
2013-06-12 08:00:00,70.9,66.5,29.85,NW,308,1.0,2.0,86,0.00,,,0.01,262,WeatherCatV1.15B25,2013-06-12 12:00:00,
2013-06-12 08:05:00,71.3,66.9,29.86,NNW,339,3.0,3.0,86,0.00,,,0.01,262,WeatherCatV1.15B25,2013-06-12 12:05:00,
2013-06-12 08:10:00,72.0,66.9,29.86,WNW,301,0.0,3.0,84,0.00,,,0.01,102,WeatherCatV1.15B25,2013-06-12 12:10:00,
2013-06-12 08:15:00,72.5,67.4,29.86,WSW,255,2.0,4.0,84,0.00,,,0.01,292,WeatherCatV1.15B25,2013-06-12 12:15:00,
2013-06-12 08:20:00,73.2,67.7,29.86,WNW,296,1.0,5.0,83,0.00,,,0.01,316,WeatherCatV1.15B25,2013-06-12 12:20:00,
2013-06-12 08:25:00,73.9,67.7,29.86,West,263,2.0,8.0,81,0.00,,,0.01,353,WeatherCatV1.15B25,2013-06-12 12:25:00,
2013-06-12 08:30:00,74.6,68.0,29.86,WSW,257,1.0,3.0,80,0.00,,,0.01,367,WeatherCatV1.15B25,2013-06-12 12:30:00,
2013-06-12 08:35:00,75.2,68.2,29.86,West,269,3.0,3.0,79,0.00,,,0.01,394,WeatherCatV1.15B25,2013-06-12 12:35:00,
2013-06-12 08:40:00,75.7,68.7,29.85,West,267,3.0,4.0,79,0.00,,,0.01,420,WeatherCatV1.15B25,2013-06-12 12:40:00,
2013-06-12 08:45:00,76.1,68.3,29.85,WSW,258,3.0,6.0,77,0.00,,,0.01,441,WeatherCatV1.15B25,2013-06-12 12:45:00,
2013-06-12 08:50:00,76.3,68.2,29.85,WNW,289,3.0,6.0,76,0.00,,,0.01,457,WeatherCatV1.15B25,2013-06-12 12:50:00,
2013-06-12 08:55:00,76.6,68.8,29.85,West,262,3.0,4.0,77,0.00,,,0.01,471,WeatherCatV1.15B25,2013-06-12 12:55:00,
2013-06-12 09:00:00,76.8,69.4,29.85,West,277,4.0,6.0,78,0.00,,,0.01,489,WeatherCatV1.15B25,2013-06-12 13:00:00,
2013-06-12 09:05:00,77.2,69.4,29.85,WNW,286,2.0,5.0,77,0.00,,,0.01,508,WeatherCatV1.15B25,2013-06-12 13:05:00,
2013-06-12 09:10:00,77.4,68.4,29.85,West,279,6.0,6.0,74,0.00,,,0.01,555,WeatherCatV1.15B25,2013-06-12 13:10:00,
2013-06-12 09:15:00,77.6,68.6,29.85,West,265,2.0,7.0,74,0.00,,,0.01,573,WeatherCatV1.15B25,2013-06-12 13:15:00,
2013-06-12 09:20:00,77.8,69.2,29.85,West,264,3.0,5.0,75,0.00,,,0.01,619,WeatherCatV1.15B25,2013-06-12 13:20:00,
2013-06-12 09:25:00,77.8,68.4,29.85,WSW,258,1.0,4.0,73,0.00,,,0.01,355,WeatherCatV1.15B25,2013-06-12 13:25:00,
2013-06-12 09:30:00,77.7,68.7,29.85,WNW,293,4.0,5.0,74,0.00,,,0.01,596,WeatherCatV1.15B25,2013-06-12 13:30:00,
2013-06-12 09:35:00,77.9,68.5,29.85,WNW,292,5.0,8.0,73,0.00,,,0.01,621,WeatherCatV1.15B25,2013-06-12 13:35:00,
2013-06-12 09:40:00,78.2,69.2,29.85,WNW,283,3.0,7.0,74,0.00,,,0.01,628,WeatherCatV1.15B25,2013-06-12 13:40:00,
2013-06-12 09:45:00,78.5,68.7,29.85,West,271,2.0,7.0,72,0.00,,,0.01,647,WeatherCatV1.15B25,2013-06-12 13:45:00,
2013-06-12 09:50:00,78.7,69.3,29.85,WNW,302,10.0,10.0,73,0.00,,,0.01,675,WeatherCatV1.15B25,2013-06-12 13:50:00,
2013-06-12 09:55:00,78.9,69.1,29.85,West,274,4.0,6.0,72,0.00,,,0.01,673,WeatherCatV1.15B25,2013-06-12 13:55:00,
2013-06-12 09:58:00,79.0,69.2,29.85,WNW,288,10.0,10.0,72,0.00,,,0.01,675,WeatherCatV1.15B25,2013-06-12 13:58:00,
2013-06-12 10:03:00,79.2,69.0,29.84,NW,307,3.0,4.0,71,0.00,,,0.01,680,WeatherCatV1.15B25,2013-06-12 14:03:00,
2013-06-12 10:08:00,79.5,69.7,29.84,WNW,283,2.0,4.0,72,0.00,,,0.01,714,WeatherCatV1.15B25,2013-06-12 14:08:00,
2013-06-12 10:13:00,80.0,70.1,29.85,West,276,3.0,5.0,72,0.00,,,0.01,726,WeatherCatV1.15B25,2013-06-12 14:13:00,
2013-06-12 10:18:00,80.1,68.6,29.85,WSW,248,3.0,9.0,68,0.00,,,0.01,740,WeatherCatV1.15B25,2013-06-12 14:18:00,
2013-06-12 10:23:00,80.2,69.5,29.85,WSW,246,0.0,3.0,70,0.00,,,0.01,584,WeatherCatV1.15B25,2013-06-12 14:23:00,
2013-06-12 10:28:00,80.4,69.3,29.85,WNW,289,2.0,5.0,69,0.00,,,0.01,585,WeatherCatV1.15B25,2013-06-12 14:28:00,
2013-06-12 10:33:00,80.6,69.5,29.85,WSW,258,2.0,4.0,69,0.00,,,0.01,348,WeatherCatV1.15B25,2013-06-12 14:33:00,
2013-06-12 10:38:00,80.4,68.4,29.86,West,273,2.0,6.0,67,0.00,,,0.01,782,WeatherCatV1.15B25,2013-06-12 14:38:00,
2013-06-12 10:43:00,80.3,68.8,29.85,WNW,289,3.0,8.0,68,0.00,,,0.01,798,WeatherCatV1.15B25,2013-06-12 14:43:00,
2013-06-12 10:48:00,80.4,68.4,29.85,NW,309,3.0,6.0,67,0.00,,,0.01,856,WeatherCatV1.15B25,2013-06-12 14:48:00,
2013-06-12 10:53:00,80.9,68.9,29.85,West,277,3.0,11.0,67,0.00,,,0.01,842,WeatherCatV1.15B25,2013-06-12 14:53:00,
2013-06-12 10:58:00,81.5,69.5,29.85,WNW,296,2.0,4.0,67,0.00,,,0.01,840,WeatherCatV1.15B25,2013-06-12 14:58:00,
2013-06-12 11:03:00,81.7,69.6,29.85,WSW,242,2.0,3.0,67,0.00,,,0.01,925,WeatherCatV1.15B25,2013-06-12 15:03:00,
2013-06-12 11:08:00,81.8,69.7,29.85,WNW,282,5.0,6.0,67,0.00,,,0.01,898,WeatherCatV1.15B25,2013-06-12 15:08:00,
2013-06-12 11:13:00,81.8,68.4,29.85,NW,319,2.0,5.0,64,0.00,,,0.01,884,WeatherCatV1.15B25,2013-06-12 15:13:00,
2013-06-12 11:18:00,82.0,68.6,29.86,WNW,286,5.0,7.0,64,0.00,,,0.01,914,WeatherCatV1.15B25,2013-06-12 15:18:00,
2013-06-12 11:25:00,82.3,68.9,29.86,NNW,328,2.0,2.0,64,0.00,,,0.01,933,WeatherCatV1.15B25,2013-06-12 15:25:00,
2013-06-12 11:32:00,82.4,69.0,29.86,WNW,298,5.0,7.0,64,0.00,,,0.01,877,WeatherCatV1.15B25,2013-06-12 15:32:00,
2013-06-12 11:37:00,82.7,68.3,29.86,NNW,335,3.0,4.0,62,0.00,,,0.01,911,WeatherCatV1.15B25,2013-06-12 15:37:00,
2013-06-12 11:42:00,82.9,69.9,29.86,WNW,303,1.0,4.0,65,0.00,,,0.01,960,WeatherCatV1.15B25,2013-06-12 15:42:00,
2013-06-12 11:47:00,83.3,69.8,29.86,West,274,2.0,4.0,64,0.00,,,0.01,951,WeatherCatV1.15B25,2013-06-12 15:47:00,
2013-06-12 11:52:00,83.6,69.6,29.85,NNW,345,2.0,7.0,63,0.00,,,0.01,991,WeatherCatV1.15B25,2013-06-12 15:52:00,
2013-06-12 11:57:00,83.4,69.5,29.86,WNW,301,2.0,5.0,63,0.00,,,0.01,977,WeatherCatV1.15B25,2013-06-12 15:57:00,
2013-06-12 12:00:00,83.3,69.4,29.85,WNW,296,3.0,3.0,63,0.00,,,0.01,255,WeatherCatV1.15B25,2013-06-12 16:00:00,
2013-06-12 12:05:00,83.3,70.3,29.85,West,277,1.0,4.0,65,0.00,,,0.01,942,WeatherCatV1.15B25,2013-06-12 16:05:00,
2013-06-12 12:10:00,83.7,71.1,29.85,West,271,3.0,4.0,66,0.00,,,0.01,983,WeatherCatV1.15B25,2013-06-12 16:10:00,
2013-06-12 12:15:00,84.0,68.6,29.85,NNW,335,3.0,7.0,60,0.00,,,0.01,933,WeatherCatV1.15B25,2013-06-12 16:15:00,
2013-06-12 12:20:00,83.7,70.2,29.85,NW,310,2.0,4.0,64,0.00,,,0.01,939,WeatherCatV1.15B25,2013-06-12 16:20:00,
2013-06-12 12:25:00,83.7,68.3,29.85,NNW,348,0.0,3.0,60,0.00,,,0.01,241,WeatherCatV1.15B25,2013-06-12 16:25:00,
2013-06-12 12:30:00,83.7,69.3,29.85,NW,304,0.0,1.0,62,0.00,,,0.01,962,WeatherCatV1.15B25,2013-06-12 16:30:00,
2013-06-12 12:35:00,84.1,69.2,29.85,NW,326,2.0,6.0,61,0.00,,,0.01,993,WeatherCatV1.15B25,2013-06-12 16:35:00,
2013-06-12 12:40:00,84.4,69.0,29.85,SW,234,0.0,4.0,60,0.00,,,0.01,241,WeatherCatV1.15B25,2013-06-12 16:40:00,
2013-06-12 12:45:00,84.5,69.5,29.85,NW,308,0.0,2.0,61,0.00,,,0.01,962,WeatherCatV1.15B25,2013-06-12 16:45:00,
2013-06-12 12:50:00,84.8,69.8,29.85,NNW,339,3.0,4.0,61,0.00,,,0.01,288,WeatherCatV1.15B25,2013-06-12 16:50:00,
2013-06-12 12:54:00,84.5,67.6,29.85,NNW,347,1.0,2.0,57,0.00,,,0.01,288,WeatherCatV1.15B25,2013-06-12 16:54:00,
2013-06-12 12:59:00,84.2,68.8,29.85,NNW,341,1.0,3.0,60,0.00,,,0.01,236,WeatherCatV1.15B25,2013-06-12 16:59:00,
2013-06-12 13:04:00,84.0,68.1,29.85,NW,307,2.0,3.0,59,0.00,,,0.01,946,WeatherCatV1.15B25,2013-06-12 17:04:00,
2013-06-12 13:09:00,84.4,70.9,29.84,NNW,331,0.0,1.0,64,0.00,,,0.01,912,WeatherCatV1.15B25,2013-06-12 17:09:00,
2013-06-12 13:14:00,85.0,71.0,29.84,South,169,2.0,2.0,63,0.00,,,0.01,1046,WeatherCatV1.15B25,2013-06-12 17:14:00,
2013-06-12 13:19:00,85.3,69.3,29.84,South,179,1.0,3.0,59,0.00,,,0.01,327,WeatherCatV1.15B25,2013-06-12 17:19:00,
2013-06-12 13:24:00,84.9,68.9,29.84,West,269,3.0,4.0,59,0.00,,,0.01,241,WeatherCatV1.15B25,2013-06-12 17:24:00,
2013-06-12 13:29:00,84.8,69.8,29.84,WNW,296,1.0,2.0,61,0.00,,,0.01,984,WeatherCatV1.15B25,2013-06-12 17:29:00,
2013-06-12 13:34:00,85.3,69.8,29.83,WNW,290,1.0,3.0,60,0.00,,,0.01,243,WeatherCatV1.15B25,2013-06-12 17:34:00,
2013-06-12 13:39:00,85.8,68.3,29.83,West,271,4.0,7.0,56,0.00,,,0.01,294,WeatherCatV1.15B25,2013-06-12 17:39:00,
2013-06-12 13:44:00,85.7,69.7,29.83,West,275,2.0,3.0,59,0.00,,,0.01,406,WeatherCatV1.15B25,2013-06-12 17:44:00,
2013-06-12 13:49:00,85.9,68.9,29.83,West,275,1.0,3.0,57,0.00,,,0.01,1051,WeatherCatV1.15B25,2013-06-12 17:49:00,
2013-06-12 13:54:00,85.9,68.3,29.83,NW,310,0.0,1.0,56,0.00,,,0.01,773,WeatherCatV1.15B25,2013-06-12 17:54:00,
2013-06-12 13:59:00,85.6,69.1,29.83,WNW,299,0.0,6.0,58,0.00,,,0.01,272,WeatherCatV1.15B25,2013-06-12 17:59:00,
2013-06-12 14:04:00,85.3,68.8,29.83,West,273,0.0,2.0,58,0.00,,,0.01,236,WeatherCatV1.15B25,2013-06-12 18:04:00,
2013-06-12 14:11:00,85.1,69.1,29.83,West,271,2.0,2.0,59,0.00,,,0.01,248,WeatherCatV1.15B25,2013-06-12 18:11:00,
2013-06-12 14:16:00,84.7,69.2,29.83,WNW,300,1.0,2.0,60,0.00,,,0.01,142,WeatherCatV1.15B25,2013-06-12 18:16:00,
2013-06-12 14:21:00,84.5,70.5,29.83,WNW,301,1.0,2.0,63,0.00,,,0.01,969,WeatherCatV1.15B25,2013-06-12 18:21:00,
2013-06-12 14:26:00,85.0,71.4,29.83,WNW,300,0.0,3.0,64,0.00,,,0.01,991,WeatherCatV1.15B25,2013-06-12 18:26:00,
2013-06-12 14:31:00,85.8,69.8,29.83,West,272,2.0,5.0,59,0.00,,,0.01,896,WeatherCatV1.15B25,2013-06-12 18:31:00,
2013-06-12 14:36:00,86.1,71.5,29.83,SW,223,1.0,5.0,62,0.00,,,0.01,234,WeatherCatV1.15B25,2013-06-12 18:36:00,
2013-06-12 14:41:00,85.8,68.3,29.82,WNW,292,5.0,5.0,56,0.00,,,0.01,352,WeatherCatV1.15B25,2013-06-12 18:41:00,
2013-06-12 14:46:00,86.0,71.0,29.82,NW,313,2.0,2.0,61,0.00,,,0.01,956,WeatherCatV1.15B25,2013-06-12 18:46:00,
2013-06-12 14:51:00,86.7,71.1,29.81,West,271,2.0,5.0,60,0.00,,,0.01,914,WeatherCatV1.15B25,2013-06-12 18:51:00,
2013-06-12 14:56:00,87.3,70.7,29.81,NNW,327,2.0,5.0,58,0.00,,,0.01,698,WeatherCatV1.15B25,2013-06-12 18:56:00,
2013-06-12 15:01:00,87.4,69.7,29.82,West,264,3.0,6.0,56,0.00,,,0.01,696,WeatherCatV1.15B25,2013-06-12 19:01:00,
2013-06-12 15:06:00,87.5,69.3,29.82,NNW,338,2.0,4.0,55,0.00,,,0.01,882,WeatherCatV1.15B25,2013-06-12 19:06:00,
2013-06-12 15:11:00,87.7,71.6,29.81,West,277,2.0,2.0,59,0.00,,,0.01,893,WeatherCatV1.15B25,2013-06-12 19:11:00,
2013-06-12 15:16:00,88.1,71.4,29.82,WNW,289,1.0,6.0,58,0.00,,,0.01,930,WeatherCatV1.15B25,2013-06-12 19:16:00,
2013-06-12 15:21:00,87.8,68.5,29.82,NW,319,3.0,5.0,53,0.00,,,0.01,930,WeatherCatV1.15B25,2013-06-12 19:21:00,
2013-06-12 15:26:00,87.6,69.9,29.82,WSW,248,0.0,2.0,56,0.00,,,0.01,424,WeatherCatV1.15B25,2013-06-12 19:26:00,
2013-06-12 15:31:00,87.4,69.7,29.82,West,280,1.0,4.0,56,0.00,,,0.01,807,WeatherCatV1.15B25,2013-06-12 19:31:00,
2013-06-12 15:36:00,87.0,69.4,29.82,WNW,294,2.0,3.0,56,0.00,,,0.01,900,WeatherCatV1.15B25,2013-06-12 19:36:00,
2013-06-12 15:41:00,87.2,71.6,29.82,NNW,345,0.0,2.0,60,0.00,,,0.01,884,WeatherCatV1.15B25,2013-06-12 19:41:00,
2013-06-12 15:46:00,87.8,69.6,29.81,WNW,294,1.0,3.0,55,0.00,,,0.01,896,WeatherCatV1.15B25,2013-06-12 19:46:00,
2013-06-12 15:51:00,88.0,71.3,29.81,WNW,289,4.0,4.0,58,0.00,,,0.01,837,WeatherCatV1.15B25,2013-06-12 19:51:00,
2013-06-12 15:56:00,87.9,68.6,29.81,WNW,288,3.0,10.0,53,0.00,,,0.01,770,WeatherCatV1.15B25,2013-06-12 19:56:00,
2013-06-12 16:01:00,87.8,70.1,29.81,NW,312,1.0,4.0,56,0.00,,,0.01,754,WeatherCatV1.15B25,2013-06-12 20:01:00,
2013-06-12 16:06:00,88.2,69.4,29.81,WSW,246,2.0,4.0,54,0.00,,,0.01,754,WeatherCatV1.15B25,2013-06-12 20:06:00,
2013-06-12 16:11:00,88.1,69.9,29.81,West,260,2.0,6.0,55,0.00,,,0.01,610,WeatherCatV1.15B25,2013-06-12 20:11:00,
2013-06-12 16:16:00,87.6,69.4,29.81,WNW,291,3.0,3.0,55,0.00,,,0.01,183,WeatherCatV1.15B25,2013-06-12 20:16:00,
2013-06-12 16:21:00,87.2,69.0,29.81,NW,306,1.0,4.0,55,0.00,,,0.01,302,WeatherCatV1.15B25,2013-06-12 20:21:00,
2013-06-12 16:26:00,87.0,70.4,29.80,West,278,0.0,1.0,58,0.00,,,0.01,587,WeatherCatV1.15B25,2013-06-12 20:26:00,
2013-06-12 16:32:00,86.9,71.8,29.80,WNW,293,0.0,2.0,61,0.00,,,0.01,773,WeatherCatV1.15B25,2013-06-12 20:32:00,
2013-06-12 16:37:00,87.1,70.5,29.79,WNW,284,0.0,3.0,58,0.00,,,0.01,679,WeatherCatV1.15B25,2013-06-12 20:37:00,
2013-06-12 16:43:00,87.6,71.0,29.79,SW,229,1.0,1.0,58,0.00,,,0.01,487,WeatherCatV1.15B25,2013-06-12 20:43:00,
2013-06-12 16:48:00,87.3,69.6,29.77,WNW,302,1.0,3.0,56,0.00,,,0.01,506,WeatherCatV1.15B25,2013-06-12 20:48:00,
2013-06-12 16:53:00,87.2,71.1,29.78,WNW,300,2.0,2.0,59,0.00,,,0.01,619,WeatherCatV1.15B25,2013-06-12 20:53:00,
2013-06-12 16:58:00,87.5,71.4,29.78,WNW,289,1.0,3.0,59,0.00,,,0.01,608,WeatherCatV1.15B25,2013-06-12 20:58:00,
2013-06-12 17:03:00,87.8,70.1,29.78,NNW,329,2.0,3.0,56,0.00,,,0.01,680,WeatherCatV1.15B25,2013-06-12 21:03:00,
2013-06-12 17:08:00,87.9,69.1,29.77,NW,324,3.0,4.0,54,0.00,,,0.01,617,WeatherCatV1.15B25,2013-06-12 21:08:00,
2013-06-12 17:13:00,87.9,72.2,29.77,NW,304,0.0,1.0,60,0.00,,,0.01,559,WeatherCatV1.15B25,2013-06-12 21:13:00,
2013-06-12 17:18:00,87.9,70.2,29.77,WNW,297,2.0,2.0,56,0.00,,,0.01,158,WeatherCatV1.15B25,2013-06-12 21:18:00,
2013-06-12 17:23:00,87.4,69.2,29.77,WNW,294,0.0,1.0,55,0.00,,,0.01,174,WeatherCatV1.15B25,2013-06-12 21:23:00,
2013-06-12 17:28:00,87.0,70.4,29.77,West,278,3.0,3.0,58,0.00,,,0.01,482,WeatherCatV1.15B25,2013-06-12 21:28:00,
2013-06-12 17:33:00,86.8,69.7,29.78,WNW,283,3.0,3.0,57,0.00,,,0.01,308,WeatherCatV1.15B25,2013-06-12 21:33:00,
2013-06-12 17:38:00,86.4,69.3,29.78,WNW,282,1.0,3.0,57,0.00,,,0.01,116,WeatherCatV1.15B25,2013-06-12 21:38:00,
2013-06-12 17:43:00,85.9,69.4,29.78,WNW,298,1.0,2.0,58,0.00,,,0.01,199,WeatherCatV1.15B25,2013-06-12 21:43:00,
2013-06-12 17:48:00,85.4,69.9,29.77,WNW,301,1.0,1.0,60,0.00,,,0.01,227,WeatherCatV1.15B25,2013-06-12 21:48:00,
2013-06-12 17:51:00,85.2,70.2,29.77,NW,304,4.0,4.0,61,0.00,,,0.01,345,WeatherCatV1.15B25,2013-06-12 21:51:00,
2013-06-12 17:56:00,85.3,70.3,29.77,WNW,299,1.0,2.0,61,0.00,,,0.01,269,WeatherCatV1.15B25,2013-06-12 21:56:00,
2013-06-12 17:59:00,85.1,69.1,29.77,WNW,299,2.0,2.0,59,0.00,,,0.01,155,WeatherCatV1.15B25,2013-06-12 21:59:00,
2013-06-12 18:04:00,84.8,69.3,29.78,WNW,296,1.0,2.0,60,0.00,,,0.01,142,WeatherCatV1.15B25,2013-06-12 22:04:00,
2013-06-12 18:09:00,84.4,69.4,29.78,WNW,296,1.0,2.0,61,0.00,,,0.01,230,WeatherCatV1.15B25,2013-06-12 22:09:00,
2013-06-12 18:14:00,84.3,69.8,29.78,WNW,296,0.0,1.0,62,0.00,,,0.01,283,WeatherCatV1.15B25,2013-06-12 22:14:00,
2013-06-12 18:19:00,84.2,70.2,29.77,WNW,296,0.0,1.0,63,0.00,,,0.01,109,WeatherCatV1.15B25,2013-06-12 22:19:00,
2013-06-12 18:24:00,83.8,70.3,29.77,WNW,296,0.0,0.0,64,0.00,,,0.01,109,WeatherCatV1.15B25,2013-06-12 22:24:00,
2013-06-12 18:29:00,83.6,72.8,29.77,WNW,296,1.0,2.0,70,0.00,,,0.01,142,WeatherCatV1.15B25,2013-06-12 22:29:00,
2013-06-12 18:34:00,83.4,71.3,29.79,WNW,303,1.0,3.0,67,0.00,,,0.01,97,WeatherCatV1.15B25,2013-06-12 22:34:00,
2013-06-12 18:39:00,83.1,70.1,29.79,WNW,296,0.0,2.0,65,0.00,,,0.01,81,WeatherCatV1.15B25,2013-06-12 22:39:00,
2013-06-12 18:44:00,82.8,70.3,29.79,NW,311,0.0,1.0,66,0.00,,,0.01,76,WeatherCatV1.15B25,2013-06-12 22:44:00,
2013-06-12 18:49:00,82.5,70.8,29.79,NW,307,0.0,2.0,68,0.00,,,0.01,77,WeatherCatV1.15B25,2013-06-12 22:49:00,
2013-06-12 18:54:00,82.4,72.8,29.79,NW,307,1.0,1.0,73,0.00,,,0.01,69,WeatherCatV1.15B25,2013-06-12 22:54:00,
2013-06-12 18:58:00,82.2,71.4,29.79,NW,307,0.0,1.0,70,0.00,,,0.01,67,WeatherCatV1.15B25,2013-06-12 22:58:00,
2013-06-12 19:03:00,82.1,73.0,29.79,NW,307,0.0,0.0,74,0.00,,,0.01,65,WeatherCatV1.15B25,2013-06-12 23:03:00,
2013-06-12 19:08:00,81.8,72.7,29.80,NW,307,0.0,1.0,74,0.00,,,0.01,74,WeatherCatV1.15B25,2013-06-12 23:08:00,
2013-06-12 19:13:00,81.4,71.5,29.80,NW,307,0.0,1.0,72,0.00,,,0.01,70,WeatherCatV1.15B25,2013-06-12 23:13:00,
2013-06-12 19:18:00,81.1,71.2,29.80,NW,307,0.0,1.0,72,0.00,,,0.01,67,WeatherCatV1.15B25,2013-06-12 23:18:00,
2013-06-12 19:23:00,81.0,71.9,29.79,NW,307,0.0,1.0,74,0.00,,,0.01,65,WeatherCatV1.15B25,2013-06-12 23:23:00,
2013-06-12 19:28:00,80.9,72.2,29.80,NW,307,0.0,1.0,75,0.00,,,0.01,69,WeatherCatV1.15B25,2013-06-12 23:28:00,
2013-06-12 19:33:00,80.5,72.2,29.80,NW,307,0.0,0.0,76,0.00,,,0.01,53,WeatherCatV1.15B25,2013-06-12 23:33:00,
2013-06-12 19:38:00,80.4,72.9,29.80,NW,307,0.0,0.0,78,0.00,,,0.01,37,WeatherCatV1.15B25,2013-06-12 23:38:00,
2013-06-12 19:43:00,80.2,71.1,29.80,NW,307,0.0,0.0,74,0.00,,,0.01,37,WeatherCatV1.15B25,2013-06-12 23:43:00,
2013-06-12 19:48:00,80.0,72.5,29.80,NW,307,0.0,0.0,78,0.00,,,0.01,44,WeatherCatV1.15B25,2013-06-12 23:48:00,
2013-06-12 19:53:00,79.7,72.2,29.80,NW,307,0.0,0.0,78,0.00,,,0.01,40,WeatherCatV1.15B25,2013-06-12 23:53:00,
2013-06-12 20:00:00,79.5,72.4,29.80,NW,307,0.0,0.0,79,0.00,,,0.01,23,WeatherCatV1.15B25,2013-06-13 00:00:00,
2013-06-12 20:05:00,79.0,72.3,29.81,NW,307,0.0,0.0,80,0.00,,,0.01,18,WeatherCatV1.15B25,2013-06-13 00:05:00,
2013-06-12 20:10:00,78.7,72.0,29.81,NW,307,0.0,0.0,80,0.00,,,0.01,16,WeatherCatV1.15B25,2013-06-13 00:10:00,
2013-06-12 20:15:00,78.3,72.0,29.81,NW,307,0.0,0.0,81,0.00,,,0.01,14,WeatherCatV1.15B25,2013-06-13 00:15:00,
2013-06-12 20:20:00,77.8,71.8,29.81,NW,307,0.0,0.0,82,0.00,,,0.01,14,WeatherCatV1.15B25,2013-06-13 00:20:00,
2013-06-12 20:25:00,77.4,71.5,29.80,NW,307,0.0,0.0,82,0.00,,,0.01,11,WeatherCatV1.15B25,2013-06-13 00:25:00,
2013-06-12 20:30:00,77.0,71.1,29.81,NW,307,1.0,1.0,82,0.00,,,0.01,9,WeatherCatV1.15B25,2013-06-13 00:30:00,
2013-06-12 20:35:00,76.5,70.6,29.81,NW,307,0.0,0.0,82,0.00,,,0.01,5,WeatherCatV1.15B25,2013-06-13 00:35:00,
2013-06-12 20:40:00,75.9,70.0,29.80,NW,307,0.0,0.0,82,0.00,,,0.01,0,WeatherCatV1.15B25,2013-06-13 00:40:00,
2013-06-12 20:45:00,75.5,70.3,29.80,NW,307,0.0,0.0,84,0.00,,,0.01,0,WeatherCatV1.15B25,2013-06-13 00:45:00,
2013-06-12 20:50:00,75.1,69.6,29.79,NW,307,0.0,0.0,83,0.00,,,0.01,0,WeatherCatV1.15B25,2013-06-13 00:50:00,
2013-06-12 20:55:00,74.8,69.6,29.79,NW,307,0.0,0.0,84,0.00,,,0.01,0,WeatherCatV1.15B25,2013-06-13 00:55:00,
2013-06-12 21:00:00,74.6,69.4,29.79,NW,307,0.0,0.0,84,0.00,,,0.01,0,WeatherCatV1.15B25,2013-06-13 01:00:00,
2013-06-12 21:05:00,74.2,69.0,29.79,NW,307,1.0,2.0,84,0.00,,,0.01,0,WeatherCatV1.15B25,2013-06-13 01:05:00,
2013-06-12 21:10:00,73.7,68.6,29.79,NW,307,1.0,1.0,84,0.00,,,0.01,0,WeatherCatV1.15B25,2013-06-13 01:10:00,
2013-06-12 21:15:00,73.3,68.2,29.79,NW,307,1.0,1.0,84,0.00,,,0.01,0,WeatherCatV1.15B25,2013-06-13 01:15:00,
2013-06-12 21:20:00,72.9,67.8,29.79,NW,307,0.0,1.0,84,0.00,,,0.01,0,WeatherCatV1.15B25,2013-06-13 01:20:00,
2013-06-12 21:25:00,72.7,67.6,29.79,NW,307,0.0,0.0,84,0.00,,,0.01,0,WeatherCatV1.15B25,2013-06-13 01:25:00,
2013-06-12 21:30:00,72.6,67.8,29.80,NW,307,0.0,0.0,85,0.00,,,0.01,0,WeatherCatV1.15B25,2013-06-13 01:30:00,
2013-06-12 21:35:00,72.4,67.6,29.81,NW,307,0.0,0.0,85,0.00,,,0.01,0,WeatherCatV1.15B25,2013-06-13 01:35:00,
2013-06-12 21:40:00,72.2,67.4,29.81,NW,307,0.0,0.0,85,0.00,,,0.01,0,WeatherCatV1.15B25,2013-06-13 01:40:00,
2013-06-12 21:45:00,72.1,67.3,29.81,NW,307,0.0,0.0,85,0.00,,,0.01,0,WeatherCatV1.15B25,2013-06-13 01:45:00,
2013-06-12 21:50:00,72.2,67.4,29.81,NW,307,0.0,0.0,85,0.00,,,0.01,0,WeatherCatV1.15B25,2013-06-13 01:50:00,
2013-06-12 21:54:00,72.2,67.4,29.81,NW,307,0.0,0.0,85,0.00,,,0.01,0,WeatherCatV1.15B25,2013-06-13 01:54:00,
2013-06-12 21:59:00,72.1,67.3,29.82,NW,307,0.0,0.0,85,0.00,,,0.01,0,WeatherCatV1.15B25,2013-06-13 01:59:00,
2013-06-12 22:04:00,71.8,67.0,29.82,NW,307,0.0,0.0,85,0.00,,,0.01,0,WeatherCatV1.15B25,2013-06-13 02:04:00,
2013-06-12 22:09:00,71.6,66.8,29.82,NW,307,0.0,0.0,85,0.00,,,0.01,0,WeatherCatV1.15B25,2013-06-13 02:09:00,
2013-06-12 22:14:00,71.3,66.5,29.82,NW,307,0.0,0.0,85,0.00,,,0.01,0,WeatherCatV1.15B25,2013-06-13 02:14:00,
2013-06-12 22:19:00,71.0,66.3,29.82,NW,307,0.0,0.0,85,0.00,,,0.01,0,WeatherCatV1.15B25,2013-06-13 02:19:00,
2013-06-12 22:24:00,70.8,66.1,29.81,NW,307,0.0,0.0,85,0.00,,,0.01,0,WeatherCatV1.15B25,2013-06-13 02:24:00,
2013-06-12 22:29:00,70.7,66.0,29.81,NW,307,0.0,0.0,85,0.00,,,0.01,0,WeatherCatV1.15B25,2013-06-13 02:29:00,
2013-06-12 22:34:00,70.6,65.9,29.82,NW,307,0.0,0.0,85,0.00,,,0.01,0,WeatherCatV1.15B25,2013-06-13 02:34:00,
2013-06-12 22:39:00,70.5,65.8,29.81,NW,307,0.0,0.0,85,0.00,,,0.01,0,WeatherCatV1.15B25,2013-06-13 02:39:00,
2013-06-12 22:44:00,70.4,65.7,29.81,NW,307,0.0,0.0,85,0.00,,,0.01,0,WeatherCatV1.15B25,2013-06-13 02:44:00,
2013-06-12 22:49:00,70.3,65.6,29.81,NW,307,0.0,0.0,85,0.00,,,0.01,0,WeatherCatV1.15B25,2013-06-13 02:49:00,
2013-06-12 22:54:00,70.1,65.4,29.81,NW,307,0.0,0.0,85,0.00,,,0.01,0,WeatherCatV1.15B25,2013-06-13 02:54:00,
2013-06-12 22:59:00,69.9,65.2,29.81,NW,307,0.0,0.0,85,0.00,,,0.01,0,WeatherCatV1.15B25,2013-06-13 02:59:00,
2013-06-12 23:04:00,69.9,65.2,29.81,NW,307,0.0,0.0,85,0.00,,,0.01,0,WeatherCatV1.15B25,2013-06-13 03:04:00,
2013-06-12 23:09:00,69.9,65.2,29.81,NW,307,0.0,0.0,85,0.00,,,0.01,0,WeatherCatV1.15B25,2013-06-13 03:09:00,
2013-06-12 23:15:00,69.9,65.2,29.81,NW,307,0.0,0.0,85,0.00,,,0.01,0,WeatherCatV1.15B25,2013-06-13 03:15:00,
2013-06-12 23:20:00,70.0,65.3,29.80,NW,307,0.0,0.0,85,0.00,,,0.01,0,WeatherCatV1.15B25,2013-06-13 03:20:00,
2013-06-12 23:25:00,69.9,65.2,29.80,NW,307,0.0,0.0,85,0.00,,,0.01,0,WeatherCatV1.15B25,2013-06-13 03:25:00,
2013-06-12 23:30:00,69.7,65.0,29.80,NW,307,0.0,0.0,85,0.00,,,0.01,0,WeatherCatV1.15B25,2013-06-13 03:30:00,
2013-06-12 23:35:00,69.6,64.9,29.79,NW,307,0.0,0.0,85,0.00,,,0.01,0,WeatherCatV1.15B25,2013-06-13 03:35:00,
2013-06-12 23:40:00,69.4,64.7,29.78,NW,307,0.0,0.0,85,0.00,,,0.01,0,WeatherCatV1.15B25,2013-06-13 03:40:00,
2013-06-12 23:45:00,69.4,64.7,29.78,NW,307,0.0,0.0,85,0.00,,,0.01,0,WeatherCatV1.15B25,2013-06-13 03:45:00,
2013-06-12 23:50:00,69.3,64.6,29.78,NW,307,0.0,0.0,85,0.00,,,0.01,0,WeatherCatV1.15B25,2013-06-13 03:50:00,
2013-06-12 23:55:00,69.2,64.5,29.78,NW,307,0.0,0.0,85,0.00,,,0.01,0,WeatherCatV1.15B25,2013-06-13 03:55:00,